createdAt,value
2019-05-07T00:01:51.663Z,99.90
2019-05-07T00:04:22.495Z,99.90
2019-05-07T00:06:52.774Z,99.90
2019-05-07T00:09:23.385Z,99.90
2019-05-07T00:11:53.557Z,99.90
2019-05-07T00:14:23.911Z,99.90
2019-05-07T00:16:53.673Z,99.90
2019-05-07T00:19:23.604Z,99.90
2019-05-07T00:21:53.461Z,99.90
2019-05-07T00:24:23.063Z,99.90
2019-05-07T00:26:53.277Z,99.90
2019-05-07T00:29:22.944Z,99.90
2019-05-07T00:31:52.633Z,99.90
2019-05-07T00:34:23.907Z,99.90
2019-05-07T00:36:55.584Z,99.90
2019-05-07T00:39:29.667Z,99.90
2019-05-07T00:42:03.528Z,99.90
2019-05-07T00:44:34.676Z,99.90
2019-05-07T00:47:04.209Z,99.90
2019-05-07T00:49:33.736Z,99.90
2019-05-07T00:52:03.286Z,99.90
2019-05-07T00:54:32.837Z,99.90
2019-05-07T00:57:03.107Z,99.90
2019-05-07T00:59:32.734Z,99.90
2019-05-07T01:02:02.382Z,99.90
2019-05-07T01:04:33.203Z,99.90
2019-05-07T01:07:02.897Z,99.90
2019-05-07T01:09:32.515Z,99.90
2019-05-07T01:12:03.110Z,99.90
2019-05-07T01:14:32.803Z,99.90
2019-05-07T01:17:02.601Z,99.90
2019-05-07T01:19:32.845Z,99.90
2019-05-07T01:22:03.178Z,99.90
2019-05-07T01:24:33.012Z,99.90
2019-05-07T01:27:02.887Z,99.90
2019-05-07T01:29:32.982Z,99.90
2019-05-07T01:32:12.680Z,99.90
2019-05-07T01:34:47.140Z,99.90
2019-05-07T01:37:16.832Z,99.90
2019-05-07T01:39:46.354Z,99.90
2019-05-07T01:42:15.849Z,99.90
2019-05-07T01:44:45.388Z,99.90
2019-05-07T01:47:14.895Z,99.90
2019-05-07T01:49:44.419Z,99.90
2019-05-07T01:52:14.027Z,99.90
2019-05-07T01:54:43.529Z,99.90
2019-05-07T01:57:13.013Z,99.90
2019-05-07T01:59:42.855Z,99.90
2019-05-07T02:02:14.586Z,99.90
2019-05-07T02:04:54.585Z,99.90
2019-05-07T02:07:25.797Z,99.90
2019-05-07T02:10:08.837Z,99.90
2019-05-07T02:12:39.267Z,99.90
2019-05-07T02:15:09.363Z,99.90
2019-05-07T02:17:38.894Z,99.90
2019-05-07T02:20:08.541Z,99.90
2019-05-07T02:22:38.056Z,99.90
2019-05-07T02:25:07.633Z,99.90
2019-05-07T02:27:37.292Z,99.90
2019-05-07T02:30:07.130Z,99.90
2019-05-07T02:32:36.680Z,99.90
2019-05-07T02:35:06.748Z,99.90
2019-05-07T02:37:48.295Z,99.90
2019-05-07T02:40:17.008Z,99.90
2019-05-07T02:42:46.537Z,99.90
2019-05-07T02:45:33.398Z,99.90
2019-05-07T02:48:03.578Z,99.90
2019-05-07T02:50:43.486Z,99.90
2019-05-07T02:53:19.537Z,99.90
2019-05-07T02:55:54.198Z,99.90
2019-05-07T02:58:24.178Z,99.90
2019-05-07T03:00:54.683Z,99.90
2019-05-07T03:03:24.801Z,99.90
2019-05-07T03:05:54.614Z,99.90
2019-05-07T03:08:27.563Z,99.90
2019-05-07T03:10:55.925Z,99.90
2019-05-07T03:13:25.561Z,99.90
2019-05-07T03:15:55.689Z,99.90
2019-05-07T03:18:25.322Z,99.90
2019-05-07T03:20:56.918Z,99.90
2019-05-07T03:23:42.961Z,99.90
2019-05-07T03:26:13.781Z,99.90
2019-05-07T03:28:54.179Z,99.90
2019-05-07T03:31:26.409Z,99.90
2019-05-07T03:34:07.492Z,99.90
2019-05-07T03:36:39.889Z,99.90
2019-05-07T03:39:09.506Z,99.90
2019-05-07T03:41:39.154Z,99.90
2019-05-07T03:44:16.852Z,99.90
2019-05-07T03:47:01.175Z,99.90
2019-05-07T03:49:27.642Z,99.90
2019-05-07T03:52:03.841Z,99.90
2019-05-07T03:54:34.000Z,99.90
2019-05-07T03:57:10.648Z,99.90
2019-05-07T03:59:34.471Z,99.90
2019-05-07T04:02:04.558Z,99.90
2019-05-07T04:04:34.246Z,99.90
2019-05-07T04:07:04.015Z,99.90
2019-05-07T04:09:33.651Z,99.90
2019-05-07T04:12:04.188Z,99.90
2019-05-07T04:14:34.926Z,99.90
2019-05-07T04:17:14.240Z,99.90
2019-05-07T04:19:35.705Z,99.90
2019-05-07T04:22:05.207Z,99.90
2019-05-07T04:24:36.366Z,99.90
2019-05-07T04:27:12.849Z,99.90
2019-05-07T04:29:42.929Z,99.90
2019-05-07T04:32:14.421Z,99.90
2019-05-07T04:34:45.914Z,99.90
2019-05-07T04:37:15.940Z,99.90
2019-05-07T04:39:54.790Z,99.90
2019-05-07T04:42:24.751Z,99.90
2019-05-07T04:44:54.336Z,99.90
2019-05-07T04:47:38.622Z,99.90
2019-05-07T04:49:55.155Z,99.90
2019-05-07T04:52:26.331Z,99.90
2019-05-07T04:54:55.819Z,99.90
2019-05-07T04:57:25.344Z,99.90
2019-05-07T04:59:58.688Z,99.90
2019-05-07T05:02:32.523Z,99.90
2019-05-07T05:05:03.260Z,99.90
2019-05-07T05:07:33.580Z,99.90
2019-05-07T05:10:05.273Z,99.90
2019-05-07T05:12:34.842Z,99.90
2019-05-07T05:15:05.401Z,99.90
2019-05-07T05:17:48.127Z,99.90
2019-05-07T05:20:09.449Z,99.90
2019-05-07T05:22:56.373Z,99.90
2019-05-07T05:25:33.398Z,99.90
2019-05-07T05:28:02.933Z,99.90
2019-05-07T05:30:46.198Z,99.90
2019-05-07T05:33:15.713Z,99.90
2019-05-07T05:35:45.296Z,99.90
2019-05-07T05:38:14.885Z,99.90
2019-05-07T05:40:45.348Z,99.90
2019-05-07T05:43:16.500Z,99.90
2019-05-07T05:45:52.890Z,99.90
2019-05-07T05:48:22.441Z,99.90
2019-05-07T05:50:53.817Z,99.90
2019-05-07T05:53:25.044Z,99.90
2019-05-07T05:55:55.696Z,99.90
2019-05-07T05:58:45.054Z,99.90
2019-05-07T06:01:18.678Z,99.90
2019-05-07T06:03:51.899Z,99.90
2019-05-07T06:06:22.920Z,99.90
2019-05-07T06:09:01.925Z,99.90
2019-05-07T06:11:51.913Z,99.90
2019-05-07T06:14:22.711Z,99.90
2019-05-07T06:16:56.908Z,99.90
2019-05-07T06:19:32.762Z,99.90
2019-05-07T06:22:09.680Z,99.90
2019-05-07T06:24:56.522Z,99.90
2019-05-07T06:27:26.216Z,99.90
2019-05-07T06:29:55.752Z,99.90
2019-05-07T06:32:25.330Z,99.90
2019-05-07T06:34:55.008Z,99.90
2019-05-07T06:37:25.545Z,99.90
2019-05-07T06:39:59.229Z,99.90
2019-05-07T06:42:42.823Z,99.90
2019-05-07T06:45:14.389Z,99.90
2019-05-07T06:47:43.885Z,99.90
2019-05-07T06:50:13.772Z,99.90
2019-05-07T06:52:43.277Z,99.90
2019-05-07T06:55:13.711Z,99.90
2019-05-07T06:57:43.276Z,99.90
2019-05-07T07:00:17.322Z,99.90
2019-05-07T07:02:48.524Z,99.90
2019-05-07T07:05:23.435Z,99.90
2019-05-07T07:07:52.737Z,99.90
2019-05-07T07:10:24.031Z,99.90
2019-05-07T07:12:53.548Z,99.90
2019-05-07T07:15:23.297Z,99.90
2019-05-07T07:17:52.959Z,99.90
2019-05-07T07:20:22.524Z,99.90
2019-05-07T07:22:52.149Z,99.90
2019-05-07T07:25:22.889Z,99.90
2019-05-07T07:27:52.626Z,99.90
2019-05-07T07:30:32.452Z,99.90
2019-05-07T07:33:03.117Z,99.90
2019-05-07T07:35:32.752Z,99.90
2019-05-07T07:38:03.952Z,99.90
2019-05-07T07:40:37.788Z,99.90
2019-05-07T07:43:07.440Z,99.90
2019-05-07T07:45:36.972Z,99.90
2019-05-07T07:48:06.493Z,99.90
2019-05-07T07:50:35.995Z,99.90
2019-05-07T07:53:05.533Z,99.90
2019-05-07T07:55:36.745Z,99.90
2019-05-07T07:58:12.021Z,99.90
2019-05-07T08:00:45.943Z,99.90
2019-05-07T08:03:15.456Z,99.90
2019-05-07T08:05:45.034Z,99.90
2019-05-07T08:08:14.617Z,99.90
2019-05-07T08:10:44.120Z,99.90
2019-05-07T08:13:13.640Z,99.90
2019-05-07T08:15:43.949Z,99.90
2019-05-07T08:18:13.485Z,99.90
2019-05-07T08:20:43.181Z,99.90
2019-05-07T08:23:13.771Z,99.90
2019-05-07T08:25:49.184Z,99.90
2019-05-07T08:28:22.835Z,99.90
2019-05-07T08:30:53.041Z,99.90
2019-05-07T08:33:24.272Z,99.90
2019-05-07T08:36:14.299Z,99.90
2019-05-07T08:38:43.869Z,99.90
2019-05-07T08:41:13.476Z,99.90
2019-05-07T08:43:43.083Z,99.90
2019-05-07T08:46:17.515Z,99.90
2019-05-07T08:48:48.722Z,99.90
2019-05-07T08:51:18.315Z,99.90
2019-05-07T08:53:49.463Z,99.90
2019-05-07T08:56:19.249Z,99.90
2019-05-07T08:58:48.754Z,99.90
2019-05-07T09:01:18.309Z,99.90
2019-05-07T09:03:47.882Z,99.90
2019-05-07T09:06:19.318Z,99.90
2019-05-07T09:08:48.908Z,99.90
2019-05-07T09:11:18.585Z,99.90
2019-05-07T09:13:48.175Z,99.90
2019-05-07T09:16:17.756Z,99.90
2019-05-07T09:18:47.266Z,99.90
2019-05-07T09:21:17.044Z,99.90
2019-05-07T09:23:46.657Z,99.90
2019-05-07T09:26:18.188Z,99.90
2019-05-07T09:28:52.550Z,99.90
2019-05-07T09:31:26.236Z,99.90
2019-05-07T09:33:57.728Z,99.90
2019-05-07T09:36:29.153Z,99.90
2019-05-07T09:38:59.449Z,99.90
2019-05-07T09:41:29.168Z,99.90
2019-05-07T09:43:58.893Z,99.90
2019-05-07T09:46:28.469Z,99.90
2019-05-07T09:48:58.016Z,99.90
2019-05-07T09:51:27.546Z,99.90
2019-05-07T09:53:57.054Z,99.90
2019-05-07T09:56:26.745Z,99.90
2019-05-07T09:58:56.253Z,99.90
2019-05-07T10:01:25.955Z,99.90
2019-05-07T10:03:56.568Z,99.90
2019-05-07T10:06:26.119Z,99.90
2019-05-07T10:08:55.767Z,95.90
2019-05-07T10:11:32.719Z,99.80
2019-05-07T10:14:04.041Z,98.20
2019-05-07T10:16:41.857Z,98.80
2019-05-07T10:19:11.478Z,98.40
2019-05-07T10:21:42.562Z,97.20
2019-05-07T10:24:12.990Z,94.80
2019-05-07T10:26:42.984Z,89.70
2019-05-07T10:29:12.813Z,84.70
2019-05-07T10:31:42.521Z,93.80
2019-05-07T10:34:12.470Z,89.80
2019-05-07T10:36:42.319Z,93.40
2019-05-07T10:39:12.895Z,92.20
2019-05-07T10:41:42.748Z,90.10
2019-05-07T10:47:16.446Z,93.00
2019-05-07T10:49:52.527Z,88.20
2019-05-07T10:52:22.829Z,88.90
2019-05-07T10:54:59.763Z,87.40
2019-05-07T10:57:23.808Z,82.50
2019-05-07T10:59:53.493Z,84.70
2019-05-07T11:02:24.614Z,88.50
2019-05-07T11:04:54.144Z,90.80
2019-05-07T11:07:23.741Z,90.60
2019-05-07T11:09:53.289Z,93.10
2019-05-07T11:12:23.014Z,92.50
2019-05-07T11:14:52.641Z,91.80
2019-05-07T11:17:35.744Z,92.30
2019-05-07T11:20:07.982Z,92.40
2019-05-07T11:22:37.499Z,93.90
2019-05-07T11:25:07.342Z,94.80
2019-05-07T11:27:37.099Z,92.70
2019-05-07T11:30:08.688Z,92.00
2019-05-07T11:32:38.202Z,92.70
2019-05-07T11:35:08.104Z,94.40
2019-05-07T11:37:37.635Z,94.80
2019-05-07T11:40:09.356Z,94.80
2019-05-07T11:42:56.652Z,94.70
2019-05-07T11:45:27.833Z,93.80
2019-05-07T11:47:57.888Z,94.40
2019-05-07T11:50:29.135Z,95.70
2019-05-07T11:53:00.333Z,95.00
2019-05-07T11:55:30.469Z,95.50
2019-05-07T11:58:02.282Z,97.00
2019-05-07T12:00:42.610Z,99.30
2019-05-07T12:03:12.317Z,99.90
2019-05-07T12:05:42.346Z,99.90
2019-05-07T12:08:13.230Z,99.90
2019-05-07T12:10:42.928Z,99.90
2019-05-07T12:13:12.930Z,99.90
2019-05-07T12:15:42.943Z,99.90
2019-05-07T12:18:12.630Z,98.40
2019-05-07T12:20:42.331Z,99.50
2019-05-07T12:23:12.244Z,99.10
2019-05-07T12:25:42.430Z,99.90
2019-05-07T12:28:13.282Z,99.90
2019-05-07T12:30:51.759Z,99.40
2019-05-07T12:33:39.713Z,99.90
2019-05-07T12:36:12.563Z,99.90
2019-05-07T12:38:42.389Z,99.20
2019-05-07T12:41:33.033Z,98.70
2019-05-07T12:44:04.296Z,98.50
2019-05-07T12:46:34.156Z,96.90
2019-05-07T12:49:03.954Z,99.20
2019-05-07T12:51:49.965Z,99.90
2019-05-07T12:54:22.646Z,99.90
2019-05-07T12:56:52.454Z,97.20
2019-05-07T12:59:22.086Z,98.00
2019-05-07T13:02:01.407Z,98.20
2019-05-07T13:04:32.677Z,98.80
2019-05-07T13:07:21.989Z,97.90
2019-05-07T13:09:53.522Z,97.80
2019-05-07T13:12:23.097Z,98.10
2019-05-07T13:14:52.635Z,99.90
2019-05-07T13:17:22.565Z,95.30
2019-05-07T13:19:52.582Z,92.00
2019-05-07T13:22:22.313Z,91.10
2019-05-07T13:24:52.911Z,88.40
2019-05-07T13:27:22.708Z,83.70
2019-05-07T13:29:53.163Z,85.50
2019-05-07T13:32:24.345Z,84.90
2019-05-07T13:34:54.078Z,83.80
2019-05-07T13:37:25.271Z,80.50
2019-05-07T13:39:59.270Z,80.70
2019-05-07T13:42:39.350Z,77.60
2019-05-07T13:45:11.931Z,75.00
2019-05-07T13:47:41.725Z,73.00
2019-05-07T13:50:12.023Z,74.20
2019-05-07T13:52:43.333Z,70.10
2019-05-07T13:55:13.561Z,73.10
2019-05-07T13:57:43.290Z,70.90
2019-05-07T14:00:15.480Z,69.70
2019-05-07T14:02:45.004Z,69.50
2019-05-07T14:05:15.084Z,73.90
2019-05-07T14:07:44.714Z,71.10
2019-05-07T14:10:15.613Z,75.80
2019-05-07T14:12:46.181Z,71.80
2019-05-07T14:15:16.966Z,73.30
2019-05-07T14:17:46.570Z,78.10
2019-05-07T14:20:16.565Z,76.90
2019-05-07T14:22:46.105Z,78.60
2019-05-07T14:25:17.151Z,80.70
2019-05-07T14:27:46.754Z,80.00
2019-05-07T14:30:16.940Z,78.70
2019-05-07T14:32:58.157Z,80.00
2019-05-07T14:35:32.028Z,82.60
2019-05-07T14:38:02.630Z,82.20
2019-05-07T14:40:32.499Z,83.00
2019-05-07T14:43:12.719Z,85.30
2019-05-07T14:45:42.405Z,83.80
2019-05-07T14:48:12.295Z,81.60
2019-05-07T14:50:44.862Z,85.20
2019-05-07T14:53:13.344Z,83.80
2019-05-07T14:55:42.923Z,84.10
2019-05-07T14:58:12.589Z,81.60
2019-05-07T15:00:42.833Z,82.80
2019-05-07T15:03:14.533Z,82.70
2019-05-07T15:05:44.119Z,84.90
2019-05-07T15:08:14.555Z,82.50
2019-05-07T15:10:44.623Z,82.80
2019-05-07T15:13:14.551Z,83.50
2019-05-07T15:15:44.276Z,83.30
2019-05-07T15:18:15.887Z,80.80
2019-05-07T15:20:47.405Z,82.20
2019-05-07T15:23:22.643Z,84.20
2019-05-07T15:25:52.235Z,81.50
2019-05-07T15:28:22.830Z,80.00
2019-05-07T15:30:54.464Z,80.00
2019-05-07T15:33:24.071Z,83.70
2019-05-07T15:35:53.666Z,82.00
2019-05-07T15:38:23.253Z,74.70
2019-05-07T15:40:52.920Z,69.20
2019-05-07T15:43:22.422Z,69.40
2019-05-07T15:45:52.476Z,72.30
2019-05-07T15:48:22.170Z,76.80
2019-05-07T15:50:52.101Z,75.70
2019-05-07T15:53:29.064Z,72.90
2019-05-07T15:55:58.652Z,72.40
2019-05-07T15:58:28.371Z,73.00
2019-05-07T16:00:57.880Z,73.40
2019-05-07T16:03:44.184Z,75.10
2019-05-07T16:06:13.681Z,76.30
2019-05-07T16:08:49.320Z,74.50
2019-05-07T16:11:19.204Z,77.50
2019-05-07T16:14:05.636Z,75.90
2019-05-07T16:16:36.879Z,77.60
2019-05-07T16:19:14.319Z,76.70
2019-05-07T16:21:44.122Z,75.40
2019-05-07T16:24:13.820Z,75.70
2019-05-07T16:26:43.417Z,78.70
2019-05-07T16:29:13.436Z,79.60
2019-05-07T16:31:44.244Z,79.00
2019-05-07T16:34:14.074Z,78.90
2019-05-07T16:36:44.677Z,77.80
2019-05-07T16:39:14.480Z,81.20
2019-05-07T16:41:44.156Z,80.40
2019-05-07T16:44:13.672Z,81.40
2019-05-07T16:46:43.261Z,82.80
2019-05-07T16:49:12.776Z,82.70
2019-05-07T16:51:44.798Z,84.10
2019-05-07T16:54:13.536Z,82.20
2019-05-07T16:57:02.967Z,83.10
2019-05-07T16:59:32.538Z,81.90
2019-05-07T17:02:04.901Z,82.80
2019-05-07T17:04:34.467Z,83.00
2019-05-07T17:07:05.643Z,83.70
2019-05-07T17:09:35.556Z,84.40
2019-05-07T17:12:07.723Z,83.50
2019-05-07T17:14:37.212Z,84.00
2019-05-07T17:17:06.752Z,83.00
2019-05-07T17:19:36.333Z,81.40
2019-05-07T17:22:06.560Z,84.00
2019-05-07T17:24:36.312Z,84.40
2019-05-07T17:27:05.885Z,84.80
2019-05-07T17:29:35.389Z,85.80
2019-05-07T17:32:04.959Z,87.00
2019-05-07T17:34:34.529Z,88.40
2019-05-07T17:37:04.727Z,90.20
2019-05-07T17:39:34.251Z,90.70
2019-05-07T17:42:03.860Z,91.00
2019-05-07T17:44:33.409Z,90.80
2019-05-07T17:47:04.027Z,91.30
2019-05-07T17:49:36.189Z,90.80
2019-05-07T17:52:04.905Z,91.40
2019-05-07T17:54:34.424Z,91.30
2019-05-07T17:57:04.232Z,91.40
2019-05-07T17:59:33.857Z,91.70
2019-05-07T18:02:05.012Z,91.80
2019-05-07T18:04:47.502Z,92.40
2019-05-07T18:07:06.470Z,92.80
2019-05-07T18:09:36.080Z,93.90
2019-05-07T18:12:05.906Z,94.60
2019-05-07T18:14:36.365Z,97.80
2019-05-07T18:17:12.445Z,97.20
2019-05-07T18:19:42.148Z,98.40
2019-05-07T18:22:12.772Z,99.90
2019-05-07T18:24:42.459Z,99.90
2019-05-07T18:27:13.892Z,99.90
2019-05-07T18:29:43.687Z,99.90
2019-05-07T18:32:13.237Z,99.90
2019-05-07T18:34:42.863Z,99.90
2019-05-07T18:37:12.629Z,99.90
2019-05-07T18:39:42.780Z,99.90
2019-05-07T18:42:12.796Z,99.90
2019-05-07T18:44:42.431Z,99.90
2019-05-07T18:47:12.912Z,99.90
2019-05-07T18:49:44.756Z,99.90
2019-05-07T18:52:13.881Z,99.90
2019-05-07T18:54:43.429Z,99.90
2019-05-07T18:57:13.217Z,99.90
2019-05-07T18:59:42.744Z,99.90
2019-05-07T19:02:12.344Z,99.90
2019-05-07T19:04:42.862Z,99.90
2019-05-07T19:07:13.204Z,99.90
2019-05-07T19:09:42.844Z,99.90
2019-05-07T19:12:14.122Z,99.90
2019-05-07T19:14:43.792Z,99.90
2019-05-07T19:17:13.338Z,99.90
2019-05-07T19:19:42.908Z,99.90
2019-05-07T19:22:12.430Z,99.90
2019-05-07T19:24:47.833Z,99.90
2019-05-07T19:27:14.461Z,99.90
2019-05-07T19:29:45.962Z,99.90
2019-05-07T19:32:15.748Z,99.90
2019-05-07T19:34:45.307Z,99.90
2019-05-07T19:37:14.889Z,99.90
2019-05-07T19:39:44.484Z,99.90
2019-05-07T19:42:14.013Z,99.90
2019-05-07T19:44:43.511Z,99.90
2019-05-07T19:47:13.268Z,99.90
2019-05-07T19:49:42.772Z,99.90
2019-05-07T19:52:12.494Z,99.90
2019-05-07T19:54:44.347Z,99.90
2019-05-07T19:57:15.037Z,99.90
2019-05-07T19:59:44.548Z,99.90
2019-05-07T20:02:15.760Z,99.90
2019-05-07T20:04:45.298Z,99.90
2019-05-07T20:07:14.932Z,99.90
2019-05-07T20:09:44.572Z,99.90
2019-05-07T20:12:14.183Z,99.90
2019-05-07T20:14:43.687Z,99.90
2019-05-07T20:17:13.220Z,99.90
2019-05-07T20:19:42.781Z,99.90
2019-05-07T20:22:12.830Z,99.90
2019-05-07T20:24:42.525Z,99.90
2019-05-07T20:27:12.571Z,99.90
2019-05-07T20:29:42.758Z,99.90
2019-05-07T20:32:12.477Z,99.90
2019-05-07T20:34:42.331Z,99.90
2019-05-07T20:37:13.960Z,99.90
2019-05-07T20:39:43.504Z,99.90
2019-05-07T20:42:13.040Z,99.90
2019-05-07T20:44:42.721Z,99.90
2019-05-07T20:47:13.332Z,99.90
2019-05-07T20:49:43.157Z,99.90
2019-05-07T20:52:12.878Z,99.90
2019-05-07T20:54:44.021Z,99.90
2019-05-07T20:57:15.177Z,99.90
2019-05-07T20:59:44.680Z,99.90
2019-05-07T21:02:14.520Z,99.90
2019-05-07T21:04:44.098Z,99.90
2019-05-07T21:07:14.676Z,99.90
2019-05-07T21:09:45.230Z,99.90
2019-05-07T21:12:14.734Z,99.90
2019-05-07T21:14:44.234Z,99.90
2019-05-07T21:17:13.792Z,99.90
2019-05-07T21:19:43.305Z,99.90
2019-05-07T21:22:13.168Z,99.90
2019-05-07T21:24:42.831Z,99.90
2019-05-07T21:27:12.492Z,99.90
2019-05-07T21:29:42.399Z,99.90
2019-05-07T21:32:12.500Z,99.90
2019-05-07T21:34:42.265Z,99.90
2019-05-07T21:37:12.617Z,99.90
2019-05-07T21:39:42.578Z,99.90
2019-05-07T21:42:14.281Z,99.90
2019-05-07T21:44:43.580Z,99.90
2019-05-07T21:47:13.240Z,99.90
2019-05-07T21:49:43.134Z,99.90
2019-05-07T21:52:12.913Z,99.90
2019-05-07T21:54:50.036Z,99.90
2019-05-07T21:57:24.219Z,99.90
2019-05-07T21:59:55.500Z,99.90
2019-05-07T22:02:25.792Z,99.90
2019-05-07T22:04:55.369Z,99.90
2019-05-07T22:07:25.095Z,99.90
2019-05-07T22:09:54.710Z,99.90
2019-05-07T22:12:24.213Z,99.90
2019-05-07T22:14:53.852Z,99.90
2019-05-07T22:17:24.486Z,99.90
2019-05-07T22:19:53.981Z,99.90
2019-05-07T22:22:24.300Z,99.90
2019-05-07T22:24:54.194Z,99.90
2019-05-07T22:27:23.709Z,99.90
2019-05-07T22:29:53.278Z,99.90
2019-05-07T22:32:27.237Z,99.90
2019-05-07T22:35:02.828Z,99.90
2019-05-07T22:37:32.565Z,99.90
2019-05-07T22:40:02.802Z,99.90
2019-05-07T22:42:32.767Z,99.90
2019-05-07T22:45:02.910Z,99.90
2019-05-07T22:47:32.809Z,99.90
2019-05-07T22:50:02.767Z,99.90
2019-05-07T22:52:32.749Z,99.90
2019-05-07T22:55:02.416Z,99.90
2019-05-07T22:57:49.665Z,99.90
2019-05-07T23:00:22.603Z,99.90
2019-05-07T23:02:53.909Z,99.90
2019-05-07T23:05:23.601Z,99.90
2019-05-07T23:07:53.100Z,99.90
2019-05-07T23:10:22.764Z,99.90
2019-05-07T23:12:52.313Z,99.90
2019-05-07T23:15:22.628Z,99.90
2019-05-07T23:17:52.194Z,99.90
2019-05-07T23:20:24.122Z,99.90
2019-05-07T23:22:52.906Z,99.90
2019-05-07T23:25:24.451Z,99.90
2019-05-07T23:27:53.676Z,99.90
2019-05-07T23:30:23.292Z,99.90
2019-05-07T23:32:53.001Z,99.90
2019-05-07T23:35:22.594Z,99.90
2019-05-07T23:37:53.002Z,99.90
2019-05-07T23:40:24.760Z,99.90
2019-05-07T23:42:56.024Z,99.90
2019-05-07T23:45:26.525Z,99.90
2019-05-07T23:47:56.517Z,99.90
2019-05-07T23:50:26.071Z,99.90
2019-05-07T23:52:55.653Z,99.90
2019-05-07T23:55:25.153Z,99.90
2019-05-07T23:57:54.691Z,99.90
